createdAt,value
2022-10-17T00:04:35.584Z,81.40
2022-10-17T00:12:40.968Z,81.80
2022-10-17T00:20:48.859Z,81.70
2022-10-17T00:28:55.650Z,82.50
2022-10-17T00:37:03.572Z,82.40
2022-10-17T00:45:23.312Z,81.50
2022-10-17T00:53:31.772Z,81.70
2022-10-17T01:01:37.564Z,82.10
2022-10-17T01:09:47.998Z,83.10
2022-10-17T01:18:02.195Z,83.20
2022-10-17T01:26:22.128Z,83.00
2022-10-17T01:34:36.191Z,83.60
2022-10-17T01:42:48.436Z,83.30
2022-10-17T01:51:01.527Z,83.70
2022-10-17T01:59:12.417Z,83.40
2022-10-17T02:07:20.368Z,83.90
2022-10-17T02:15:53.997Z,84.20
2022-10-17T02:24:10.707Z,85.10
2022-10-17T02:40:34.663Z,85.10
2022-10-17T02:48:45.256Z,84.30
2022-10-17T02:56:57.836Z,84.20
2022-10-17T03:05:03.228Z,84.60
2022-10-17T03:13:11.266Z,85.50
2022-10-17T03:21:19.491Z,84.80
2022-10-17T03:29:27.888Z,85.40
2022-10-17T03:37:33.399Z,84.80
2022-10-17T03:45:41.398Z,84.60
2022-10-17T03:53:47.059Z,84.80
2022-10-17T04:01:55.140Z,84.80
2022-10-17T04:10:01.111Z,85.60
2022-10-17T04:18:09.183Z,85.60
2022-10-17T04:26:14.588Z,85.80
2022-10-17T04:34:22.664Z,86.80
2022-10-17T04:42:28.534Z,87.00
2022-10-17T04:50:37.768Z,88.10
2022-10-17T04:59:06.445Z,87.10
2022-10-17T05:07:15.478Z,87.10
2022-10-17T05:15:26.376Z,87.10
2022-10-17T05:23:36.075Z,86.90
2022-10-17T05:31:41.521Z,87.40
2022-10-17T05:39:51.503Z,87.80
2022-10-17T05:47:57.899Z,87.90
2022-10-17T05:56:08.221Z,88.30
2022-10-17T06:04:14.884Z,87.60
2022-10-17T06:12:23.474Z,87.80
2022-10-17T06:20:29.179Z,86.50
2022-10-17T06:28:37.714Z,85.30
2022-10-17T06:36:43.413Z,84.80
2022-10-17T06:44:52.275Z,84.20
2022-10-17T06:53:00.496Z,85.70
2022-10-17T07:01:30.065Z,84.90
2022-10-17T07:09:38.216Z,84.60
2022-10-17T07:17:46.219Z,84.20
2022-10-17T07:25:51.573Z,84.80
2022-10-17T07:33:59.663Z,82.30
2022-10-17T07:42:07.567Z,81.20
2022-10-17T07:50:16.215Z,82.30
2022-10-17T07:58:21.620Z,80.90
2022-10-17T08:06:29.649Z,80.20
2022-10-17T08:14:35.239Z,81.70
2022-10-17T08:22:43.328Z,81.30
2022-10-17T08:30:48.623Z,80.00
2022-10-17T08:38:57.720Z,80.20
2022-10-17T08:47:06.887Z,80.90
2022-10-17T09:03:55.163Z,76.20
2022-10-17T09:12:13.863Z,66.30
2022-10-17T09:20:22.737Z,47.20
2022-10-17T09:28:34.803Z,40.90
2022-10-17T09:36:42.669Z,37.30
2022-10-17T09:44:55.962Z,34.00
2022-10-17T09:53:08.592Z,33.40
2022-10-17T10:01:25.084Z,32.00
2022-10-17T10:09:34.866Z,30.90
2022-10-17T10:17:45.559Z,30.10
2022-10-17T10:25:59.134Z,28.80
2022-10-17T10:34:22.197Z,29.00
2022-10-17T10:42:30.503Z,28.60
2022-10-17T10:50:45.321Z,30.80
2022-10-17T10:58:58.471Z,39.30
2022-10-17T11:07:13.117Z,48.30
2022-10-17T11:15:25.467Z,52.20
2022-10-17T11:23:43.428Z,55.80
2022-10-17T11:31:53.704Z,56.40
2022-10-17T11:40:05.457Z,57.60
2022-10-17T11:48:20.497Z,58.40
2022-10-17T11:56:37.037Z,58.10
2022-10-17T12:04:55.342Z,58.60
2022-10-17T12:13:41.932Z,57.70
2022-10-17T12:22:03.156Z,57.30
2022-10-17T12:30:30.373Z,57.50
2022-10-17T12:38:35.654Z,57.00
2022-10-17T12:46:52.088Z,57.30
2022-10-17T12:55:15.095Z,58.10
2022-10-17T13:03:28.888Z,57.00
2022-10-17T13:11:36.983Z,57.80
2022-10-17T13:19:48.607Z,58.40
2022-10-17T13:27:54.702Z,58.70
2022-10-17T13:36:03.643Z,56.40
2022-10-17T13:44:16.407Z,56.50
2022-10-17T13:52:29.619Z,56.70
2022-10-17T14:00:35.418Z,58.10
2022-10-17T14:08:55.343Z,59.90
2022-10-17T14:17:00.845Z,61.40
2022-10-17T14:25:09.382Z,62.00
2022-10-17T14:33:18.962Z,61.10
2022-10-17T14:41:42.395Z,60.00
2022-10-17T14:49:52.862Z,60.00
2022-10-17T14:58:01.296Z,59.90
2022-10-17T15:06:18.295Z,60.00
2022-10-17T15:14:26.209Z,59.40
2022-10-17T15:22:31.824Z,60.20
2022-10-17T15:30:40.794Z,61.10
2022-10-17T15:38:46.154Z,62.00
2022-10-17T15:46:54.143Z,62.80
2022-10-17T15:55:04.109Z,64.60
2022-10-17T16:03:14.348Z,64.80
2022-10-17T16:11:22.531Z,66.00
2022-10-17T16:19:32.039Z,66.60
2022-10-17T16:27:37.895Z,67.40
2022-10-17T16:35:47.742Z,68.40
2022-10-17T16:43:54.226Z,68.90
2022-10-17T16:52:02.134Z,69.50
2022-10-17T17:00:09.222Z,69.80
2022-10-17T17:08:17.165Z,70.60
2022-10-17T17:16:25.490Z,71.40
2022-10-17T17:24:33.430Z,71.40
2022-10-17T17:32:38.804Z,71.70
2022-10-17T17:40:51.055Z,73.00
2022-10-17T17:48:57.591Z,72.20
2022-10-17T17:57:05.514Z,73.00
2022-10-17T18:05:11.303Z,73.40
2022-10-17T18:13:19.876Z,74.60
2022-10-17T18:21:25.763Z,75.30
2022-10-17T18:29:42.050Z,75.10
2022-10-17T18:37:47.330Z,76.50
2022-10-17T18:45:58.831Z,75.80
2022-10-17T18:54:04.045Z,76.40
2022-10-17T19:02:14.383Z,76.70
2022-10-17T19:10:19.764Z,76.80
2022-10-17T19:18:27.669Z,77.30
2022-10-17T19:26:35.181Z,78.10
2022-10-17T19:34:43.064Z,78.40
2022-10-17T19:42:48.372Z,78.80
2022-10-17T19:51:00.170Z,79.00
2022-10-17T19:59:06.496Z,79.30
2022-10-17T20:07:18.860Z,78.70
2022-10-17T20:15:25.175Z,78.80
2022-10-17T20:23:33.091Z,78.60
2022-10-17T20:31:38.421Z,79.10
2022-10-17T20:39:46.449Z,79.20
2022-10-17T20:47:54.425Z,79.50
2022-10-17T20:56:11.683Z,79.20
2022-10-17T21:12:53.836Z,79.90
2022-10-17T21:21:08.822Z,79.90
2022-10-17T21:29:17.321Z,79.90
2022-10-17T21:37:22.624Z,80.50
2022-10-17T21:45:30.696Z,81.40
2022-10-17T21:53:36.976Z,81.80
2022-10-17T22:01:47.998Z,81.90
2022-10-17T22:09:53.311Z,81.30
2022-10-17T22:18:01.273Z,81.50
2022-10-17T22:26:06.837Z,82.60
2022-10-17T22:34:16.459Z,82.00
2022-10-17T22:50:51.008Z,82.00
2022-10-17T22:58:56.354Z,82.60
2022-10-17T23:07:07.476Z,82.60
2022-10-17T23:15:13.670Z,82.30
2022-10-17T23:23:22.236Z,82.20
2022-10-17T23:31:27.552Z,82.40
2022-10-17T23:39:35.467Z,82.40
2022-10-17T23:47:41.119Z,82.50
2022-10-17T23:55:49.067Z,84.10
